createdAt,value
2022-08-25T00:01:37.685Z,100384.59
2022-08-25T00:04:41.796Z,100381.41
2022-08-25T00:07:46.108Z,100387.34
2022-08-25T00:10:53.985Z,100392.81
2022-08-25T00:14:12.037Z,100391.91
2022-08-25T00:17:14.923Z,100384.88
2022-08-25T00:20:17.817Z,100380.31
2022-08-25T00:23:20.942Z,100390.34
2022-08-25T00:26:23.481Z,100380.59
2022-08-25T00:29:26.609Z,100379.06
2022-08-25T00:32:29.111Z,100388.12
2022-08-25T00:35:31.876Z,100384.44
2022-08-25T00:38:34.378Z,100384.50
2022-08-25T00:41:39.035Z,100378.97
2022-08-25T00:44:43.961Z,100373.88
2022-08-25T00:47:47.297Z,100379.44
2022-08-25T00:50:49.817Z,100376.84
2022-08-25T00:53:52.563Z,100383.59
2022-08-25T00:56:56.726Z,100385.44
2022-08-25T01:00:00.393Z,100381.22
2022-08-25T01:03:03.051Z,100371.19
2022-08-25T01:06:06.188Z,100374.00
2022-08-25T01:09:08.739Z,100371.78
2022-08-25T01:12:11.523Z,100380.03
2022-08-25T01:15:15.118Z,100368.44
2022-08-25T01:18:18.643Z,100364.81
2022-08-25T01:21:23.267Z,100365.78
2022-08-25T01:24:41.196Z,100352.44
2022-08-25T01:27:43.671Z,100356.84
2022-08-25T01:30:46.755Z,100361.78
2022-08-25T01:33:49.234Z,100355.37
2022-08-25T01:36:52.280Z,100358.16
2022-08-25T01:39:54.837Z,100357.12
2022-08-25T01:43:08.459Z,100356.47
2022-08-25T01:46:11.261Z,100358.63
2022-08-25T01:49:14.630Z,100363.59
2022-08-25T01:52:26.010Z,100361.28
2022-08-25T01:55:29.146Z,100358.03
2022-08-25T01:58:35.573Z,100362.16
2022-08-25T02:01:38.422Z,100355.37
2022-08-25T02:04:44.379Z,100365.44
2022-08-25T02:07:47.170Z,100363.66
2022-08-25T02:10:51.431Z,100363.66
2022-08-25T02:13:54.368Z,100361.81
2022-08-25T02:16:57.478Z,100360.94
2022-08-25T02:20:00.247Z,100359.31
2022-08-25T02:23:03.062Z,100359.44
2022-08-25T02:26:05.614Z,100370.50
2022-08-25T02:29:08.667Z,100364.34
2022-08-25T02:32:11.167Z,100369.88
2022-08-25T02:35:13.961Z,100366.41
2022-08-25T02:38:16.628Z,100361.09
2022-08-25T02:41:23.084Z,100356.59
2022-08-25T02:44:33.986Z,100358.63
2022-08-25T02:47:37.319Z,100358.63
2022-08-25T02:50:40.473Z,100354.19
2022-08-25T02:53:46.089Z,100359.06
2022-08-25T02:56:48.842Z,100354.84
2022-08-25T02:59:51.796Z,100346.81
2022-08-25T03:02:54.287Z,100348.78
2022-08-25T03:05:57.780Z,100348.56
2022-08-25T03:09:01.515Z,100345.91
2022-08-25T03:12:04.619Z,100346.81
2022-08-25T03:15:12.916Z,100337.66
2022-08-25T03:18:16.182Z,100346.66
2022-08-25T03:21:19.704Z,100341.16
2022-08-25T03:24:23.954Z,100342.72
2022-08-25T03:27:27.028Z,100348.00
2022-08-25T03:30:30.128Z,100347.12
2022-08-25T03:33:32.581Z,100340.62
2022-08-25T03:36:35.412Z,100349.63
2022-08-25T03:39:37.898Z,100351.41
2022-08-25T03:42:44.858Z,100349.50
2022-08-25T03:45:48.181Z,100351.41
2022-08-25T03:48:52.010Z,100355.09
2022-08-25T03:51:55.080Z,100348.81
2022-08-25T03:54:58.461Z,100352.97
2022-08-25T03:58:00.916Z,100345.50
2022-08-25T04:01:03.717Z,100337.03
2022-08-25T04:04:07.792Z,100345.94
2022-08-25T04:07:10.311Z,100342.53
2022-08-25T04:10:13.207Z,100345.19
2022-08-25T04:13:15.666Z,100343.09
2022-08-25T04:16:21.254Z,100344.31
2022-08-25T04:19:23.964Z,100350.19
2022-08-25T04:22:26.937Z,100348.63
2022-08-25T04:25:32.400Z,100351.94
2022-08-25T04:28:35.520Z,100354.81
2022-08-25T04:31:40.393Z,100355.50
2022-08-25T04:34:43.566Z,100360.81
2022-08-25T04:37:48.190Z,100361.50
2022-08-25T04:41:02.216Z,100351.12
2022-08-25T04:44:04.875Z,100359.91
2022-08-25T04:47:07.647Z,100359.88
2022-08-25T04:50:10.811Z,100358.50
2022-08-25T04:53:13.900Z,100360.53
2022-08-25T04:56:18.362Z,100356.78
2022-08-25T04:59:21.219Z,100366.44
2022-08-25T05:02:25.389Z,100366.97
2022-08-25T05:05:31.180Z,100365.00
2022-08-25T05:08:38.348Z,100359.16
2022-08-25T05:11:41.142Z,100354.28
2022-08-25T05:14:43.619Z,100363.69
2022-08-25T05:17:46.368Z,100365.00
2022-08-25T05:20:49.436Z,100360.75
2022-08-25T05:23:57.484Z,100368.50
2022-08-25T05:26:59.989Z,100363.25
2022-08-25T05:30:02.900Z,100363.97
2022-08-25T05:33:05.437Z,100361.81
2022-08-25T05:36:10.266Z,100359.75
2022-08-25T05:39:12.864Z,100352.75
2022-08-25T05:42:16.433Z,100362.22
2022-08-25T05:45:20.342Z,100355.94
2022-08-25T05:48:24.829Z,100364.50
2022-08-25T05:51:27.525Z,100364.41
2022-08-25T05:54:31.902Z,100360.28
2022-08-25T05:57:34.919Z,100359.06
2022-08-25T06:00:39.322Z,100359.00
2022-08-25T06:03:42.131Z,100361.16
2022-08-25T06:06:44.701Z,100363.00
2022-08-25T06:09:49.021Z,100364.28
2022-08-25T06:12:52.007Z,100376.41
2022-08-25T06:16:01.310Z,100363.78
2022-08-25T06:19:04.644Z,100366.78
2022-08-25T06:22:10.135Z,100378.72
2022-08-25T06:25:14.518Z,100368.78
2022-08-25T06:28:17.587Z,100371.31
2022-08-25T06:31:22.400Z,100374.94
2022-08-25T06:34:25.396Z,100376.09
2022-08-25T06:37:28.207Z,100368.47
2022-08-25T06:40:31.149Z,100374.59
2022-08-25T06:43:34.378Z,100383.69
2022-08-25T06:46:37.361Z,100382.16
2022-08-25T06:49:40.013Z,100375.94
2022-08-25T06:52:43.159Z,100382.84
2022-08-25T06:55:45.828Z,100380.75
2022-08-25T06:58:49.085Z,100378.56
2022-08-25T07:01:51.699Z,100376.47
2022-08-25T07:04:55.709Z,100374.19
2022-08-25T07:07:58.215Z,100370.47
2022-08-25T07:11:05.959Z,100372.72
2022-08-25T07:14:11.266Z,100367.78
2022-08-25T07:17:14.307Z,100379.72
2022-08-25T07:20:19.088Z,100380.56
2022-08-25T07:23:22.990Z,100379.06
2022-08-25T07:26:38.252Z,100392.00
2022-08-25T07:29:42.682Z,100385.31
2022-08-25T07:32:45.462Z,100386.28
2022-08-25T07:35:48.444Z,100395.72
2022-08-25T07:38:52.983Z,100375.22
2022-08-25T07:41:58.107Z,100382.09
2022-08-25T07:45:00.618Z,100372.19
2022-08-25T07:48:09.709Z,100374.38
2022-08-25T07:51:14.427Z,100382.56
2022-08-25T07:54:17.340Z,100381.69
2022-08-25T07:57:22.283Z,100376.00
2022-08-25T08:00:27.944Z,100374.50
2022-08-25T08:03:45.441Z,100374.31
2022-08-25T08:06:53.815Z,100372.66
2022-08-25T08:10:27.964Z,100372.19
2022-08-25T08:13:20.075Z,100371.50
2022-08-25T08:16:26.070Z,100374.59
2022-08-25T08:19:28.644Z,100379.84
2022-08-25T08:22:31.472Z,100377.88
2022-08-25T08:25:34.007Z,100380.44
2022-08-25T08:28:36.848Z,100371.56
2022-08-25T08:31:39.363Z,100372.72
2022-08-25T08:34:42.249Z,100369.88
2022-08-25T08:37:46.886Z,100362.31
2022-08-25T08:41:23.304Z,100367.50
2022-08-25T08:44:46.289Z,100372.53
2022-08-25T08:48:07.300Z,100363.28
2022-08-25T08:51:32.800Z,100362.16
2022-08-25T08:54:38.282Z,100349.78
2022-08-25T09:00:58.466Z,100349.22
2022-08-25T09:04:47.419Z,100353.41
2022-08-25T09:08:07.920Z,100349.47
2022-08-25T09:11:30.589Z,100345.72
2022-08-25T09:14:45.034Z,100338.13
2022-08-25T09:18:07.037Z,100351.31
2022-08-25T09:21:35.806Z,100343.91
2022-08-25T09:25:02.523Z,100345.37
2022-08-25T09:28:30.482Z,100336.88
2022-08-25T09:31:38.928Z,100338.16
2022-08-25T09:34:41.750Z,100331.59
2022-08-25T09:37:58.923Z,100327.31
2022-08-25T09:41:03.651Z,100324.56
2022-08-25T09:44:17.256Z,100321.75
2022-08-25T09:47:25.031Z,100324.87
2022-08-25T09:50:31.062Z,100313.56
2022-08-25T09:53:46.026Z,100318.63
2022-08-25T09:57:01.905Z,100317.63
2022-08-25T10:00:19.267Z,100310.75
2022-08-25T10:03:25.073Z,100293.53
2022-08-25T10:06:31.270Z,100287.53
2022-08-25T10:09:41.877Z,100292.00
2022-08-25T10:12:51.155Z,100287.38
2022-08-25T10:16:20.579Z,100280.69
2022-08-25T10:19:29.259Z,100279.97
2022-08-25T10:22:34.404Z,100271.50
2022-08-25T10:25:42.887Z,100278.16
2022-08-25T10:29:12.149Z,100269.31
2022-08-25T10:32:29.999Z,100275.22
2022-08-25T10:35:39.508Z,100256.69
2022-08-25T10:38:46.092Z,100261.78
2022-08-25T10:42:19.699Z,100268.06
2022-08-25T10:45:45.086Z,100255.50
2022-08-25T10:48:58.369Z,100250.53
2022-08-25T10:52:08.377Z,100249.84
2022-08-25T10:55:23.302Z,100253.44
2022-08-25T10:58:35.080Z,100247.91
2022-08-25T11:01:46.828Z,100232.09
2022-08-25T11:05:16.187Z,100231.53
2022-08-25T11:08:38.277Z,100228.94
2022-08-25T11:11:56.378Z,100238.62
2022-08-25T11:15:08.450Z,100223.34
2022-08-25T11:18:14.605Z,100221.06
2022-08-25T11:21:25.056Z,100221.19
2022-08-25T11:25:04.167Z,100222.66
2022-08-25T11:28:15.755Z,100216.91
2022-08-25T11:31:19.452Z,100222.06
2022-08-25T11:34:22.782Z,100214.53
2022-08-25T11:37:28.148Z,100212.75
2022-08-25T11:40:31.026Z,100210.91
2022-08-25T11:43:53.508Z,100211.22
2022-08-25T11:47:07.649Z,100202.87
2022-08-25T11:50:32.032Z,100201.94
2022-08-25T11:53:37.758Z,100193.47
2022-08-25T11:56:41.884Z,100201.31
2022-08-25T11:59:53.753Z,100195.28
2022-08-25T12:03:01.286Z,100187.53
2022-08-25T12:06:22.909Z,100183.91
2022-08-25T12:09:25.644Z,100192.44
2022-08-25T12:12:31.297Z,100187.13
2022-08-25T12:15:42.819Z,100176.84
2022-08-25T12:18:46.454Z,100172.91
2022-08-25T12:21:50.097Z,100176.63
2022-08-25T12:25:08.746Z,100179.69
2022-08-25T12:28:44.076Z,100180.34
2022-08-25T12:32:03.202Z,100175.56
2022-08-25T12:35:25.808Z,100162.97
2022-08-25T12:38:50.853Z,100173.03
2022-08-25T12:42:23.327Z,100161.97
2022-08-25T12:45:38.987Z,100165.87
2022-08-25T12:48:55.665Z,100162.63
2022-08-25T12:52:04.521Z,100157.81
2022-08-25T12:55:11.534Z,100166.72
2022-08-25T12:58:17.187Z,100159.19
2022-08-25T13:01:52.826Z,100157.56
2022-08-25T13:05:23.154Z,100155.78
2022-08-25T13:08:46.960Z,100153.44
2022-08-25T13:12:05.567Z,100150.13
2022-08-25T13:15:14.002Z,100146.03
2022-08-25T13:18:22.700Z,100134.88
2022-08-25T13:21:31.141Z,100144.94
2022-08-25T13:24:40.463Z,100135.63
2022-08-25T13:27:48.797Z,100141.16
2022-08-25T13:31:00.538Z,100132.09
2022-08-25T13:34:08.993Z,100129.78
2022-08-25T13:37:31.310Z,100124.06
2022-08-25T13:40:36.641Z,100116.78
2022-08-25T13:43:40.979Z,100116.91
2022-08-25T13:46:45.437Z,100119.41
2022-08-25T13:49:48.335Z,100116.62
2022-08-25T13:52:54.057Z,100115.66
2022-08-25T13:56:01.963Z,100116.53
2022-08-25T13:59:10.607Z,100114.66
2022-08-25T14:02:45.997Z,100113.78
2022-08-25T14:06:24.453Z,100109.88
2022-08-25T14:09:38.698Z,100103.84
2022-08-25T14:12:46.570Z,100097.97
2022-08-25T14:15:49.396Z,100102.94
2022-08-25T14:18:58.827Z,100092.13
2022-08-25T14:22:02.222Z,100092.00
2022-08-25T14:25:06.662Z,100087.56
2022-08-25T14:28:19.892Z,100092.00
2022-08-25T14:31:32.007Z,100096.78
2022-08-25T14:34:38.612Z,100084.66
2022-08-25T14:37:42.405Z,100087.44
2022-08-25T14:40:45.099Z,100088.31
2022-08-25T14:43:48.250Z,100081.31
2022-08-25T14:46:52.761Z,100083.06
2022-08-25T14:49:55.639Z,100084.06
2022-08-25T14:52:58.266Z,100074.69
2022-08-25T14:56:08.435Z,100080.19
2022-08-25T14:59:12.178Z,100077.34
2022-08-25T15:02:20.003Z,100083.63
2022-08-25T15:05:28.432Z,100072.69
2022-08-25T15:08:50.580Z,100074.09
2022-08-25T15:11:55.266Z,100069.16
2022-08-25T15:14:58.341Z,100064.19
2022-08-25T15:18:01.430Z,100072.50
2022-08-25T15:21:04.412Z,100063.72
2022-08-25T15:24:08.938Z,100067.50
2022-08-25T15:27:14.666Z,100072.56
2022-08-25T15:30:17.302Z,100066.75
2022-08-25T15:33:22.772Z,100067.59
2022-08-25T15:36:27.427Z,100061.22
2022-08-25T15:39:30.188Z,100062.66
2022-08-25T15:42:32.654Z,100061.91
2022-08-25T15:45:38.325Z,100064.06
2022-08-25T15:48:41.261Z,100060.28
2022-08-25T15:51:45.416Z,100064.63
2022-08-25T15:54:48.034Z,100060.13
2022-08-25T15:57:51.145Z,100064.28
2022-08-25T16:00:56.627Z,100060.13
2022-08-25T16:03:59.642Z,100057.22
2022-08-25T16:07:02.161Z,100041.13
2022-08-25T16:10:08.382Z,100055.09
2022-08-25T16:13:11.579Z,100048.56
2022-08-25T16:16:15.659Z,100044.59
2022-08-25T16:19:18.333Z,100042.50
2022-08-25T16:22:21.212Z,100038.56
2022-08-25T16:25:23.785Z,100031.81
2022-08-25T16:28:26.616Z,100035.88
2022-08-25T16:31:29.162Z,100038.03
2022-08-25T16:34:33.025Z,100037.75
2022-08-25T16:37:37.195Z,100036.00
2022-08-25T16:40:42.369Z,100030.25
2022-08-25T16:43:45.735Z,100039.12
2022-08-25T16:46:48.663Z,100039.03
2022-08-25T16:49:51.213Z,100035.28
2022-08-25T16:53:12.689Z,100036.81
2022-08-25T16:56:15.175Z,100029.25
2022-08-25T16:59:18.535Z,100032.44
2022-08-25T17:02:21.765Z,100029.00
2022-08-25T17:05:24.821Z,100025.75
2022-08-25T17:08:30.468Z,100023.75
2022-08-25T17:11:36.165Z,100022.88
2022-08-25T17:14:38.635Z,100026.87
2022-08-25T17:17:41.423Z,100028.03
2022-08-25T17:20:45.400Z,100022.91
2022-08-25T17:23:48.785Z,100029.81
2022-08-25T17:26:53.868Z,100032.53
2022-08-25T17:29:56.682Z,100022.47
2022-08-25T17:33:00.787Z,100019.84
2022-08-25T17:36:04.854Z,100031.97
2022-08-25T17:39:09.639Z,100029.56
2022-08-25T17:42:12.444Z,100034.38
2022-08-25T17:45:15.027Z,100029.06
2022-08-25T17:48:18.262Z,100029.47
2022-08-25T17:51:23.003Z,100035.16
2022-08-25T17:54:25.873Z,100030.72
2022-08-25T17:57:30.337Z,100034.22
2022-08-25T18:00:34.070Z,100033.16
2022-08-25T18:03:37.482Z,100032.31
2022-08-25T18:06:40.116Z,100025.97
2022-08-25T18:09:44.131Z,100025.78
2022-08-25T18:12:47.478Z,100043.81
2022-08-25T18:15:51.029Z,100039.41
2022-08-25T18:18:54.751Z,100038.31
2022-08-25T18:21:57.581Z,100039.06
2022-08-25T18:25:00.435Z,100045.25
2022-08-25T18:28:03.538Z,100056.88
2022-08-25T18:31:06.291Z,100053.56
2022-08-25T18:34:11.644Z,100048.50
2022-08-25T18:37:34.556Z,100047.06
2022-08-25T18:40:37.958Z,100052.12
2022-08-25T18:43:40.455Z,100054.81
2022-08-25T18:46:43.553Z,100055.50
2022-08-25T18:49:48.121Z,100068.94
2022-08-25T18:52:51.674Z,100065.72
2022-08-25T18:55:58.152Z,100067.31
2022-08-25T18:59:01.436Z,100068.63
2022-08-25T19:02:04.508Z,100068.13
2022-08-25T19:05:10.524Z,100070.31
2022-08-25T19:08:15.310Z,100073.78
2022-08-25T19:11:22.327Z,100073.22
2022-08-25T19:14:26.361Z,100071.75
2022-08-25T19:17:29.331Z,100070.19
2022-08-25T19:20:42.101Z,100066.66
2022-08-25T19:23:44.829Z,100069.91
2022-08-25T19:26:49.590Z,100047.37
2022-08-25T19:29:55.837Z,100062.53
2022-08-25T19:32:58.670Z,100068.66
2022-08-25T19:36:01.876Z,100071.47
2022-08-25T19:39:06.742Z,100071.00
2022-08-25T19:42:31.665Z,100066.00
2022-08-25T19:45:32.554Z,100073.03
2022-08-25T19:48:35.361Z,100072.16
2022-08-25T19:51:43.930Z,100071.78
2022-08-25T19:54:47.184Z,100069.41
2022-08-25T19:57:49.729Z,100069.00
2022-08-25T20:00:53.970Z,100077.53
2022-08-25T20:03:56.911Z,100079.75
2022-08-25T20:06:59.667Z,100080.84
2022-08-25T20:10:03.828Z,100073.81
2022-08-25T20:13:07.558Z,100071.44
2022-08-25T20:16:10.587Z,100070.47
2022-08-25T20:19:13.102Z,100077.63
2022-08-25T20:22:19.941Z,100070.31
2022-08-25T20:25:25.750Z,100076.56
2022-08-25T20:28:29.451Z,100073.22
2022-08-25T20:31:33.655Z,100066.81
2022-08-25T20:34:36.714Z,100070.44
2022-08-25T20:37:40.046Z,100069.19
2022-08-25T20:40:43.430Z,100073.41
2022-08-25T20:43:46.022Z,100051.72
2022-08-25T20:46:49.149Z,100061.44
2022-08-25T20:49:54.146Z,100064.16
2022-08-25T20:52:58.820Z,100075.41
2022-08-25T20:56:10.721Z,100072.06
2022-08-25T20:59:13.714Z,100071.06
2022-08-25T21:02:17.797Z,100069.72
2022-08-25T21:05:20.719Z,100063.44
2022-08-25T21:08:23.734Z,100065.31
2022-08-25T21:11:28.285Z,100065.50
2022-08-25T21:14:30.778Z,100062.84
2022-08-25T21:17:34.888Z,100068.69
2022-08-25T21:20:37.430Z,100065.06
2022-08-25T21:23:44.486Z,100073.44
2022-08-25T21:26:51.727Z,100071.06
2022-08-25T21:29:55.402Z,100063.91
2022-08-25T21:32:58.183Z,100065.78
2022-08-25T21:36:01.620Z,100070.53
2022-08-25T21:39:06.120Z,100064.97
2022-08-25T21:45:16.357Z,100068.16
2022-08-25T21:48:24.006Z,100073.56
2022-08-25T21:51:31.929Z,100062.84
2022-08-25T21:54:34.706Z,100069.47
2022-08-25T21:57:38.275Z,100076.59
2022-08-25T22:00:41.683Z,100073.88
2022-08-25T22:03:47.199Z,100062.22
2022-08-25T22:06:49.858Z,100060.75
2022-08-25T22:09:53.266Z,100055.38
2022-08-25T22:12:56.144Z,100060.06
2022-08-25T22:15:59.472Z,100057.22
2022-08-25T22:19:03.028Z,100057.50
2022-08-25T22:22:06.911Z,100051.41
2022-08-25T22:25:09.602Z,100061.28
2022-08-25T22:28:14.957Z,100063.75
2022-08-25T22:31:20.679Z,100056.25
2022-08-25T22:34:31.762Z,100058.81
2022-08-25T22:37:35.062Z,100052.72
2022-08-25T22:40:39.257Z,100050.06
2022-08-25T22:43:42.041Z,100055.81
2022-08-25T22:46:45.316Z,100049.81
2022-08-25T22:49:48.843Z,100049.00
2022-08-25T22:52:51.843Z,100043.72
2022-08-25T22:55:54.303Z,100036.47
2022-08-25T22:59:10.566Z,100042.12
2022-08-25T23:02:13.164Z,100045.84
2022-08-25T23:05:15.987Z,100040.37
2022-08-25T23:08:25.146Z,100034.97
2022-08-25T23:11:42.049Z,100034.91
2022-08-25T23:14:44.753Z,100026.25
2022-08-25T23:17:48.339Z,100028.09
2022-08-25T23:21:09.969Z,100027.56
2022-08-25T23:24:29.262Z,100034.44
2022-08-25T23:27:32.982Z,100029.84
2022-08-25T23:30:39.129Z,100030.31
2022-08-25T23:33:45.680Z,100029.25
2022-08-25T23:36:48.454Z,100025.97
2022-08-25T23:39:51.048Z,100022.53
2022-08-25T23:42:53.876Z,100015.47
2022-08-25T23:45:56.839Z,100021.13
2022-08-25T23:48:59.757Z,100014.78
2022-08-25T23:52:02.367Z,100007.72
2022-08-25T23:55:06.394Z,100008.25
2022-08-25T23:58:10.692Z,100006.50
